To NAV CANADA Home Page Login to a new session Search on AWWS site Disclaimer Vers la page française équivalente Tips FAQ What's new on the site To the Forecasts and Observations / NOTAM section To "File a Flight Plan" website Publications and other links Update of the User's profile FIC Telephone Numbers My Weather Data Folder Route Weather Data Regional Weather Data Local Weather Data To the Forecasts and Observations / NOTAM section
Request Generated 03/19/2019 at 23:20:23 UTC . Weather information available at that time is displayed.

METAR/TAF

LETHBRIDGE/AB    (show WxCam)

METAR CYQL 192300Z 17004KT 60SM SCT270 15/03 A3017 RMK CI3 SLP239 DENSITY ALT 3500FT=
METAR CYQL 192200Z 19003KT 60SM SCT270 15/M00 A3018 RMK CI3 SLP242 DENSITY ALT 3500FT=
METAR CYQL 192100Z 22004KT 60SM FEW270 14/00 A3019 RMK CI1 SLP247 DENSITY ALT 3300FT=

TAF CYQL 191738Z 1918/2006 23008KT P6SM FEW280
RMK NXT FCST BY 200000Z=
Your time UTC time
Weather data provided by Environment Canada and NAV CANADA